sensor_id;sensor_type;location;lat;lon;timestamp;temperature;humidity
30336;DHT22;17142;47.990;7.846;2024-03-22T00:00:33;10.70;99.90
30336;DHT22;17142;47.990;7.846;2024-03-22T00:02:58;10.70;99.90
30336;DHT22;17142;47.990;7.846;2024-03-22T00:05:27;10.70;99.90
30336;DHT22;17142;47.990;7.846;2024-03-22T00:08:02;10.70;99.90
30336;DHT22;17142;47.990;7.846;2024-03-22T00:10:30;10.70;99.90
30336;DHT22;17142;47.990;7.846;2024-03-22T00:12:58;10.70;99.90
30336;DHT22;17142;47.990;7.846;2024-03-22T00:15:29;10.80;99.90
30336;DHT22;17142;47.990;7.846;2024-03-22T00:17:57;10.70;99.90
30336;DHT22;17142;47.990;7.846;2024-03-22T00:20:22;10.70;99.90
30336;DHT22;17142;47.990;7.846;2024-03-22T00:22:48;10.70;99.90
30336;DHT22;17142;47.990;7.846;2024-03-22T00:25:27;10.60;99.90
30336;DHT22;17142;47.990;7.846;2024-03-22T00:27:55;10.60;99.90
30336;DHT22;17142;47.990;7.846;2024-03-22T00:30:21;10.60;99.90
30336;DHT22;17142;47.990;7.846;2024-03-22T00:32:46;10.50;99.90
30336;DHT22;17142;47.990;7.846;2024-03-22T00:35:12;10.50;99.90
30336;DHT22;17142;47.990;7.846;2024-03-22T00:37:43;10.40;99.90
30336;DHT22;17142;47.990;7.846;2024-03-22T00:40:09;10.40;99.90
30336;DHT22;17142;47.990;7.846;2024-03-22T00:42:35;10.40;99.90
30336;DHT22;17142;47.990;7.846;2024-03-22T00:45:03;10.40;99.90
30336;DHT22;17142;47.990;7.846;2024-03-22T00:47:33;10.40;99.90
30336;DHT22;17142;47.990;7.846;2024-03-22T00:49:58;10.30;99.90
30336;DHT22;17142;47.990;7.846;2024-03-22T00:52:24;10.30;99.90
30336;DHT22;17142;47.990;7.846;2024-03-22T00:54:50;10.20;99.90
30336;DHT22;17142;47.990;7.846;2024-03-22T00:57:16;10.20;99.90
30336;DHT22;17142;47.990;7.846;2024-03-22T00:59:44;10.30;99.90
30336;DHT22;17142;47.990;7.846;2024-03-22T01:02:10;10.20;99.90
30336;DHT22;17142;47.990;7.846;2024-03-22T01:04:35;10.20;99.90
30336;DHT22;17142;47.990;7.846;2024-03-22T01:07:01;10.20;99.90
30336;DHT22;17142;47.990;7.846;2024-03-22T01:09:26;10.20;99.90
30336;DHT22;17142;47.990;7.846;2024-03-22T01:11:59;10.20;99.90
30336;DHT22;17142;47.990;7.846;2024-03-22T01:14:25;10.20;99.90
30336;DHT22;17142;47.990;7.846;2024-03-22T01:16:54;10.10;99.90
30336;DHT22;17142;47.990;7.846;2024-03-22T01:19:22;10.20;99.90
30336;DHT22;17142;47.990;7.846;2024-03-22T01:21:51;10.10;99.90
30336;DHT22;17142;47.990;7.846;2024-03-22T01:24:17;10.10;99.90
30336;DHT22;17142;47.990;7.846;2024-03-22T01:26:42;10.10;99.90
30336;DHT22;17142;47.990;7.846;2024-03-22T01:29:08;10.10;99.90
30336;DHT22;17142;47.990;7.846;2024-03-22T01:31:33;10.10;99.90
30336;DHT22;17142;47.990;7.846;2024-03-22T01:33:59;10.00;99.90
30336;DHT22;17142;47.990;7.846;2024-03-22T01:36:25;10.00;99.90
30336;DHT22;17142;47.990;7.846;2024-03-22T01:38:53;10.00;99.90
30336;DHT22;17142;47.990;7.846;2024-03-22T01:41:18;10.00;99.90
30336;DHT22;17142;47.990;7.846;2024-03-22T01:43:48;9.90;99.90
30336;DHT22;17142;47.990;7.846;2024-03-22T01:46:14;9.90;99.90
30336;DHT22;17142;47.990;7.846;2024-03-22T01:48:42;9.90;99.90
30336;DHT22;17142;47.990;7.846;2024-03-22T01:51:08;9.90;99.90
30336;DHT22;17142;47.990;7.846;2024-03-22T01:53:37;10.00;99.90
30336;DHT22;17142;47.990;7.846;2024-03-22T01:56:03;10.00;99.90
30336;DHT22;17142;47.990;7.846;2024-03-22T01:58:35;10.00;99.90
30336;DHT22;17142;47.990;7.846;2024-03-22T02:01:03;10.00;99.90
30336;DHT22;17142;47.990;7.846;2024-03-22T02:03:28;10.10;99.90
30336;DHT22;17142;47.990;7.846;2024-03-22T02:05:54;10.00;99.90
30336;DHT22;17142;47.990;7.846;2024-03-22T02:08:20;9.90;99.90
30336;DHT22;17142;47.990;7.846;2024-03-22T02:10:45;9.90;99.90
30336;DHT22;17142;47.990;7.846;2024-03-22T02:13:14;9.80;99.90
30336;DHT22;17142;47.990;7.846;2024-03-22T02:15:42;9.80;99.90
30336;DHT22;17142;47.990;7.846;2024-03-22T02:18:07;9.80;99.90
30336;DHT22;17142;47.990;7.846;2024-03-22T02:20:35;9.80;99.90
30336;DHT22;17142;47.990;7.846;2024-03-22T02:23:06;9.70;99.90
30336;DHT22;17142;47.990;7.846;2024-03-22T02:25:32;9.70;99.90
30336;DHT22;17142;47.990;7.846;2024-03-22T02:27:59;9.70;99.90
30336;DHT22;17142;47.990;7.846;2024-03-22T02:30:25;9.70;99.90
30336;DHT22;17142;47.990;7.846;2024-03-22T02:32:51;9.70;99.90
30336;DHT22;17142;47.990;7.846;2024-03-22T02:35:16;9.70;99.90
30336;DHT22;17142;47.990;7.846;2024-03-22T02:37:42;9.60;99.90
30336;DHT22;17142;47.990;7.846;2024-03-22T02:40:08;9.70;99.90
30336;DHT22;17142;47.990;7.846;2024-03-22T02:42:34;9.70;99.90
30336;DHT22;17142;47.990;7.846;2024-03-22T02:44:59;9.60;99.90
30336;DHT22;17142;47.990;7.846;2024-03-22T02:47:27;9.60;99.90
30336;DHT22;17142;47.990;7.846;2024-03-22T02:49:53;9.60;99.90
30336;DHT22;17142;47.990;7.846;2024-03-22T02:52:19;9.60;99.90
30336;DHT22;17142;47.990;7.846;2024-03-22T02:54:44;9.70;99.90
30336;DHT22;17142;47.990;7.846;2024-03-22T02:57:10;9.70;99.90
30336;DHT22;17142;47.990;7.846;2024-03-22T02:59:36;9.70;99.90
30336;DHT22;17142;47.990;7.846;2024-03-22T03:02:06;9.70;99.90
30336;DHT22;17142;47.990;7.846;2024-03-22T03:04:37;9.60;99.90
30336;DHT22;17142;47.990;7.846;2024-03-22T03:07:05;9.70;99.90
30336;DHT22;17142;47.990;7.846;2024-03-22T03:09:36;9.60;99.90
30336;DHT22;17142;47.990;7.846;2024-03-22T03:12:05;9.60;99.90
30336;DHT22;17142;47.990;7.846;2024-03-22T03:14:33;9.60;99.90
30336;DHT22;17142;47.990;7.846;2024-03-22T03:16:59;9.60;99.90
30336;DHT22;17142;47.990;7.846;2024-03-22T03:19:24;9.60;99.90
30336;DHT22;17142;47.990;7.846;2024-03-22T03:21:50;9.60;99.90
30336;DHT22;17142;47.990;7.846;2024-03-22T03:24:16;9.60;99.90
30336;DHT22;17142;47.990;7.846;2024-03-22T03:26:41;9.60;99.90
30336;DHT22;17142;47.990;7.846;2024-03-22T03:29:07;9.60;99.90
30336;DHT22;17142;47.990;7.846;2024-03-22T03:31:32;9.60;99.90
30336;DHT22;17142;47.990;7.846;2024-03-22T03:34:00;9.70;99.90
30336;DHT22;17142;47.990;7.846;2024-03-22T03:36:29;9.70;99.90
30336;DHT22;17142;47.990;7.846;2024-03-22T03:38:54;9.70;99.90
30336;DHT22;17142;47.990;7.846;2024-03-22T03:41:22;9.70;99.90
30336;DHT22;17142;47.990;7.846;2024-03-22T03:43:50;9.70;99.90
30336;DHT22;17142;47.990;7.846;2024-03-22T03:46:16;9.70;99.90
30336;DHT22;17142;47.990;7.846;2024-03-22T03:48:44;9.80;99.90
30336;DHT22;17142;47.990;7.846;2024-03-22T03:51:14;9.80;99.90
30336;DHT22;17142;47.990;7.846;2024-03-22T03:53:43;9.80;99.90
30336;DHT22;17142;47.990;7.846;2024-03-22T03:56:11;9.90;99.90
30336;DHT22;17142;47.990;7.846;2024-03-22T03:58:36;9.80;99.90
30336;DHT22;17142;47.990;7.846;2024-03-22T04:01:06;9.80;99.90
30336;DHT22;17142;47.990;7.846;2024-03-22T04:03:34;9.80;99.90
30336;DHT22;17142;47.990;7.846;2024-03-22T04:06:00;9.80;99.90
30336;DHT22;17142;47.990;7.846;2024-03-22T04:08:28;9.80;99.90
30336;DHT22;17142;47.990;7.846;2024-03-22T04:10:56;9.80;99.90
30336;DHT22;17142;47.990;7.846;2024-03-22T04:13:26;9.80;99.90
30336;DHT22;17142;47.990;7.846;2024-03-22T04:15:52;9.80;99.90
30336;DHT22;17142;47.990;7.846;2024-03-22T04:18:18;9.80;99.90
30336;DHT22;17142;47.990;7.846;2024-03-22T04:20:55;9.90;99.90
30336;DHT22;17142;47.990;7.846;2024-03-22T04:23:25;9.80;99.90
30336;DHT22;17142;47.990;7.846;2024-03-22T04:25:59;9.80;99.90
30336;DHT22;17142;47.990;7.846;2024-03-22T04:28:32;9.80;99.90
30336;DHT22;17142;47.990;7.846;2024-03-22T04:33:28;9.80;99.90
30336;DHT22;17142;47.990;7.846;2024-03-22T04:35:59;9.80;99.90
30336;DHT22;17142;47.990;7.846;2024-03-22T04:38:28;9.80;99.90
30336;DHT22;17142;47.990;7.846;2024-03-22T04:40:57;9.80;99.90
30336;DHT22;17142;47.990;7.846;2024-03-22T04:43:23;9.80;99.90
30336;DHT22;17142;47.990;7.846;2024-03-22T04:45:52;9.80;99.90
30336;DHT22;17142;47.990;7.846;2024-03-22T04:48:21;9.80;99.90
30336;DHT22;17142;47.990;7.846;2024-03-22T04:50:48;9.80;99.90
30336;DHT22;17142;47.990;7.846;2024-03-22T04:53:19;9.70;99.90
30336;DHT22;17142;47.990;7.846;2024-03-22T04:55:49;9.70;99.90
30336;DHT22;17142;47.990;7.846;2024-03-22T04:58:15;9.80;99.90
30336;DHT22;17142;47.990;7.846;2024-03-22T05:00:48;9.80;99.90
30336;DHT22;17142;47.990;7.846;2024-03-22T05:03:14;9.70;99.90
30336;DHT22;17142;47.990;7.846;2024-03-22T05:05:45;9.70;99.90
30336;DHT22;17142;47.990;7.846;2024-03-22T05:08:13;9.70;99.90
30336;DHT22;17142;47.990;7.846;2024-03-22T05:10:39;9.80;99.90
30336;DHT22;17142;47.990;7.846;2024-03-22T05:13:07;9.80;99.90
30336;DHT22;17142;47.990;7.846;2024-03-22T05:15:35;9.80;99.90
30336;DHT22;17142;47.990;7.846;2024-03-22T05:18:01;9.80;99.90
30336;DHT22;17142;47.990;7.846;2024-03-22T05:20:27;9.70;99.90
30336;DHT22;17142;47.990;7.846;2024-03-22T05:22:52;9.80;99.90
30336;DHT22;17142;47.990;7.846;2024-03-22T05:25:21;9.80;99.90
30336;DHT22;17142;47.990;7.846;2024-03-22T05:27:47;9.80;99.90
30336;DHT22;17142;47.990;7.846;2024-03-22T05:30:15;9.80;99.90
30336;DHT22;17142;47.990;7.846;2024-03-22T05:32:41;9.80;99.90
30336;DHT22;17142;47.990;7.846;2024-03-22T05:35:09;9.80;99.90
30336;DHT22;17142;47.990;7.846;2024-03-22T05:37:40;9.80;99.90
30336;DHT22;17142;47.990;7.846;2024-03-22T05:40:07;9.80;99.90
30336;DHT22;17142;47.990;7.846;2024-03-22T05:42:36;9.80;99.90
30336;DHT22;17142;47.990;7.846;2024-03-22T05:45:02;9.80;99.90
30336;DHT22;17142;47.990;7.846;2024-03-22T05:47:30;9.80;99.90
30336;DHT22;17142;47.990;7.846;2024-03-22T05:49:57;9.80;99.90
30336;DHT22;17142;47.990;7.846;2024-03-22T05:52:22;9.80;99.90
30336;DHT22;17142;47.990;7.846;2024-03-22T05:54:48;9.80;99.90
30336;DHT22;17142;47.990;7.846;2024-03-22T05:57:14;9.80;99.90
30336;DHT22;17142;47.990;7.846;2024-03-22T05:59:42;9.80;99.90
30336;DHT22;17142;47.990;7.846;2024-03-22T06:02:08;9.90;99.90
30336;DHT22;17142;47.990;7.846;2024-03-22T06:04:33;9.90;99.90
30336;DHT22;17142;47.990;7.846;2024-03-22T06:07:02;10.00;99.90
30336;DHT22;17142;47.990;7.846;2024-03-22T06:09:29;10.20;99.90
30336;DHT22;17142;47.990;7.846;2024-03-22T06:12:17;10.30;99.90
30336;DHT22;17142;47.990;7.846;2024-03-22T06:14:43;10.30;99.90
30336;DHT22;17142;47.990;7.846;2024-03-22T06:17:09;10.20;99.90
30336;DHT22;17142;47.990;7.846;2024-03-22T06:19:36;10.20;99.90
30336;DHT22;17142;47.990;7.846;2024-03-22T06:22:02;10.20;99.90
30336;DHT22;17142;47.990;7.846;2024-03-22T06:24:30;10.30;99.90
30336;DHT22;17142;47.990;7.846;2024-03-22T06:27:07;10.30;99.90
30336;DHT22;17142;47.990;7.846;2024-03-22T06:29:35;10.40;99.90
30336;DHT22;17142;47.990;7.846;2024-03-22T06:32:00;10.80;99.90
30336;DHT22;17142;47.990;7.846;2024-03-22T06:34:26;11.20;99.90
30336;DHT22;17142;47.990;7.846;2024-03-22T06:36:52;11.30;99.90
30336;DHT22;17142;47.990;7.846;2024-03-22T06:39:17;11.10;99.90
30336;DHT22;17142;47.990;7.846;2024-03-22T06:41:45;10.90;99.90
30336;DHT22;17142;47.990;7.846;2024-03-22T06:44:17;10.80;99.90
30336;DHT22;17142;47.990;7.846;2024-03-22T06:46:47;11.30;99.90
30336;DHT22;17142;47.990;7.846;2024-03-22T06:49:13;11.40;99.90
30336;DHT22;17142;47.990;7.846;2024-03-22T06:51:39;11.30;99.90
30336;DHT22;17142;47.990;7.846;2024-03-22T06:54:07;11.20;99.90
30336;DHT22;17142;47.990;7.846;2024-03-22T06:56:32;11.30;99.90
30336;DHT22;17142;47.990;7.846;2024-03-22T06:58:58;11.70;99.90
30336;DHT22;17142;47.990;7.846;2024-03-22T07:01:23;12.30;99.90
30336;DHT22;17142;47.990;7.846;2024-03-22T07:03:51;13.20;99.90
30336;DHT22;17142;47.990;7.846;2024-03-22T07:06:20;14.00;99.90
30336;DHT22;17142;47.990;7.846;2024-03-22T07:08:46;14.60;99.90
30336;DHT22;17142;47.990;7.846;2024-03-22T07:11:16;14.90;99.90
30336;DHT22;17142;47.990;7.846;2024-03-22T07:13:45;15.10;99.90
30336;DHT22;17142;47.990;7.846;2024-03-22T07:16:20;14.90;99.90
30336;DHT22;17142;47.990;7.846;2024-03-22T07:18:48;14.00;99.90
30336;DHT22;17142;47.990;7.846;2024-03-22T07:21:14;14.00;99.90
30336;DHT22;17142;47.990;7.846;2024-03-22T07:23:42;13.80;99.90
30336;DHT22;17142;47.990;7.846;2024-03-22T07:26:16;13.80;99.90
30336;DHT22;17142;47.990;7.846;2024-03-22T07:28:42;13.80;99.90
30336;DHT22;17142;47.990;7.846;2024-03-22T07:31:16;13.30;99.90
30336;DHT22;17142;47.990;7.846;2024-03-22T07:33:42;13.00;99.90
30336;DHT22;17142;47.990;7.846;2024-03-22T07:36:07;12.90;99.90
30336;DHT22;17142;47.990;7.846;2024-03-22T07:38:33;13.00;99.90
30336;DHT22;17142;47.990;7.846;2024-03-22T07:41:01;13.60;99.90
30336;DHT22;17142;47.990;7.846;2024-03-22T07:43:27;14.10;99.90
30336;DHT22;17142;47.990;7.846;2024-03-22T07:45:53;14.20;99.90
30336;DHT22;17142;47.990;7.846;2024-03-22T07:48:18;14.50;99.90
30336;DHT22;17142;47.990;7.846;2024-03-22T07:50:46;14.80;99.90
30336;DHT22;17142;47.990;7.846;2024-03-22T07:53:23;15.20;99.90
30336;DHT22;17142;47.990;7.846;2024-03-22T07:55:51;15.40;99.90
30336;DHT22;17142;47.990;7.846;2024-03-22T07:58:17;15.30;99.90
30336;DHT22;17142;47.990;7.846;2024-03-22T08:00:42;15.20;99.90
30336;DHT22;17142;47.990;7.846;2024-03-22T08:03:14;15.70;99.90
30336;DHT22;17142;47.990;7.846;2024-03-22T08:05:43;16.30;99.90
30336;DHT22;17142;47.990;7.846;2024-03-22T08:08:09;16.80;99.90
30336;DHT22;17142;47.990;7.846;2024-03-22T08:10:37;17.20;99.90
30336;DHT22;17142;47.990;7.846;2024-03-22T08:13:05;17.60;99.90
30336;DHT22;17142;47.990;7.846;2024-03-22T08:15:31;17.20;99.90
30336;DHT22;17142;47.990;7.846;2024-03-22T08:17:56;17.00;99.90
30336;DHT22;17142;47.990;7.846;2024-03-22T08:20:30;16.90;99.90
30336;DHT22;17142;47.990;7.846;2024-03-22T08:23:01;17.00;99.90
30336;DHT22;17142;47.990;7.846;2024-03-22T08:25:27;17.10;99.90
30336;DHT22;17142;47.990;7.846;2024-03-22T08:27:53;17.20;99.90
30336;DHT22;17142;47.990;7.846;2024-03-22T08:30:21;16.90;99.90
30336;DHT22;17142;47.990;7.846;2024-03-22T08:32:46;17.00;99.90
30336;DHT22;17142;47.990;7.846;2024-03-22T08:35:14;17.20;99.90
30336;DHT22;17142;47.990;7.846;2024-03-22T08:37:43;16.90;99.90
30336;DHT22;17142;47.990;7.846;2024-03-22T08:40:09;17.10;99.90
30336;DHT22;17142;47.990;7.846;2024-03-22T08:42:38;17.10;99.90
30336;DHT22;17142;47.990;7.846;2024-03-22T08:45:06;17.20;99.90
30336;DHT22;17142;47.990;7.846;2024-03-22T08:47:35;16.80;99.90
30336;DHT22;17142;47.990;7.846;2024-03-22T08:50:16;17.00;99.90
30336;DHT22;17142;47.990;7.846;2024-03-22T08:52:41;17.20;99.90
30336;DHT22;17142;47.990;7.846;2024-03-22T08:55:12;17.50;99.90
30336;DHT22;17142;47.990;7.846;2024-03-22T08:57:38;17.40;99.90
30336;DHT22;17142;47.990;7.846;2024-03-22T09:00:10;17.40;99.90
30336;DHT22;17142;47.990;7.846;2024-03-22T09:02:38;17.50;99.90
30336;DHT22;17142;47.990;7.846;2024-03-22T09:05:07;17.60;99.70
30336;DHT22;17142;47.990;7.846;2024-03-22T09:07:36;17.80;99.40
30336;DHT22;17142;47.990;7.846;2024-03-22T09:10:05;18.00;98.30
30336;DHT22;17142;47.990;7.846;2024-03-22T09:12:31;18.00;97.90
30336;DHT22;17142;47.990;7.846;2024-03-22T09:15:00;17.80;97.40
30336;DHT22;17142;47.990;7.846;2024-03-22T09:17:27;17.70;97.60
30336;DHT22;17142;47.990;7.846;2024-03-22T09:19:55;17.30;97.50
30336;DHT22;17142;47.990;7.846;2024-03-22T09:22:21;17.50;98.20
30336;DHT22;17142;47.990;7.846;2024-03-22T09:24:47;17.70;97.60
30336;DHT22;17142;47.990;7.846;2024-03-22T09:27:15;17.60;97.80
30336;DHT22;17142;47.990;7.846;2024-03-22T09:29:43;17.50;97.70
30336;DHT22;17142;47.990;7.846;2024-03-22T09:32:09;17.50;98.40
30336;DHT22;17142;47.990;7.846;2024-03-22T09:34:40;17.70;97.80
30336;DHT22;17142;47.990;7.846;2024-03-22T09:37:05;17.80;98.00
30336;DHT22;17142;47.990;7.846;2024-03-22T09:39:33;18.00;98.10
30336;DHT22;17142;47.990;7.846;2024-03-22T09:42:01;17.90;97.40
30336;DHT22;17142;47.990;7.846;2024-03-22T09:44:32;17.20;98.70
30336;DHT22;17142;47.990;7.846;2024-03-22T09:47:01;17.00;99.10
30336;DHT22;17142;47.990;7.846;2024-03-22T09:49:27;16.80;99.40
30336;DHT22;17142;47.990;7.846;2024-03-22T09:51:54;16.90;99.40
30336;DHT22;17142;47.990;7.846;2024-03-22T09:54:23;16.80;99.70
30336;DHT22;17142;47.990;7.846;2024-03-22T09:56:54;16.80;99.90
30336;DHT22;17142;47.990;7.846;2024-03-22T09:59:23;17.10;99.90
30336;DHT22;17142;47.990;7.846;2024-03-22T10:01:49;17.10;99.90
30336;DHT22;17142;47.990;7.846;2024-03-22T10:04:19;17.40;99.90
30336;DHT22;17142;47.990;7.846;2024-03-22T10:06:48;17.40;99.90
30336;DHT22;17142;47.990;7.846;2024-03-22T10:09:13;17.10;99.90
30336;DHT22;17142;47.990;7.846;2024-03-22T10:11:46;16.60;99.90
30336;DHT22;17142;47.990;7.846;2024-03-22T10:14:12;16.50;99.90
30336;DHT22;17142;47.990;7.846;2024-03-22T10:16:39;16.80;99.90
30336;DHT22;17142;47.990;7.846;2024-03-22T10:19:04;16.80;99.90
30336;DHT22;17142;47.990;7.846;2024-03-22T10:21:32;16.90;99.90
30336;DHT22;17142;47.990;7.846;2024-03-22T10:24:05;16.90;99.90
30336;DHT22;17142;47.990;7.846;2024-03-22T10:26:33;17.00;99.90
30336;DHT22;17142;47.990;7.846;2024-03-22T10:28:59;17.10;99.70
30336;DHT22;17142;47.990;7.846;2024-03-22T10:31:25;17.20;98.60
30336;DHT22;17142;47.990;7.846;2024-03-22T10:33:52;17.20;98.90
30336;DHT22;17142;47.990;7.846;2024-03-22T10:36:19;17.20;98.30
30336;DHT22;17142;47.990;7.846;2024-03-22T10:38:51;17.30;97.90
30336;DHT22;17142;47.990;7.846;2024-03-22T10:41:28;17.40;98.00
30336;DHT22;17142;47.990;7.846;2024-03-22T10:43:53;17.60;97.70
30336;DHT22;17142;47.990;7.846;2024-03-22T10:46:29;17.70;97.50
30336;DHT22;17142;47.990;7.846;2024-03-22T10:48:57;17.70;97.90
30336;DHT22;17142;47.990;7.846;2024-03-22T10:51:25;17.60;97.70
30336;DHT22;17142;47.990;7.846;2024-03-22T10:53:57;17.80;97.40
30336;DHT22;17142;47.990;7.846;2024-03-22T10:56:24;18.00;97.20
30336;DHT22;17142;47.990;7.846;2024-03-22T10:58:54;18.30;96.80
30336;DHT22;17142;47.990;7.846;2024-03-22T11:01:25;18.40;95.90
30336;DHT22;17142;47.990;7.846;2024-03-22T11:04:08;18.40;96.00
30336;DHT22;17142;47.990;7.846;2024-03-22T11:06:38;18.30;96.30
30336;DHT22;17142;47.990;7.846;2024-03-22T11:09:06;18.60;96.40
30336;DHT22;17142;47.990;7.846;2024-03-22T11:11:35;18.80;95.60
30336;DHT22;17142;47.990;7.846;2024-03-22T11:14:07;18.50;95.60
30336;DHT22;17142;47.990;7.846;2024-03-22T11:16:32;18.10;96.50
30336;DHT22;17142;47.990;7.846;2024-03-22T11:19:00;18.00;95.70
30336;DHT22;17142;47.990;7.846;2024-03-22T11:21:28;18.10;95.40
30336;DHT22;17142;47.990;7.846;2024-03-22T11:23:55;18.30;94.60
30336;DHT22;17142;47.990;7.846;2024-03-22T11:26:24;18.40;94.20
30336;DHT22;17142;47.990;7.846;2024-03-22T11:28:52;18.30;92.90
30336;DHT22;17142;47.990;7.846;2024-03-22T11:31:18;18.40;93.00
30336;DHT22;17142;47.990;7.846;2024-03-22T11:33:46;18.70;92.60
30336;DHT22;17142;47.990;7.846;2024-03-22T11:36:11;18.80;90.90
30336;DHT22;17142;47.990;7.846;2024-03-22T11:38:39;18.90;89.50
30336;DHT22;17142;47.990;7.846;2024-03-22T11:41:08;18.90;85.90
30336;DHT22;17142;47.990;7.846;2024-03-22T11:43:37;18.70;79.70
30336;DHT22;17142;47.990;7.846;2024-03-22T11:46:03;18.80;79.20
30336;DHT22;17142;47.990;7.846;2024-03-22T11:48:28;18.90;75.90
30336;DHT22;17142;47.990;7.846;2024-03-22T11:50:57;19.10;73.70
30336;DHT22;17142;47.990;7.846;2024-03-22T11:53:26;19.20;65.30
30336;DHT22;17142;47.990;7.846;2024-03-22T11:55:51;19.40;64.80
30336;DHT22;17142;47.990;7.846;2024-03-22T11:58:18;19.50;54.70
30336;DHT22;17142;47.990;7.846;2024-03-22T12:00:44;19.50;54.90
30336;DHT22;17142;47.990;7.846;2024-03-22T12:03:12;19.70;60.00
30336;DHT22;17142;47.990;7.846;2024-03-22T17:18:12;18.20;59.50
30336;DHT22;17142;47.990;7.846;2024-03-22T17:20:37;18.00;61.30
30336;DHT22;17142;47.990;7.846;2024-03-22T17:23:04;17.80;63.00
30336;DHT22;17142;47.990;7.846;2024-03-22T17:25:35;17.70;63.00
30336;DHT22;17142;47.990;7.846;2024-03-22T17:28:02;17.60;65.00
30336;DHT22;17142;47.990;7.846;2024-03-22T17:30:28;17.50;65.60
30336;DHT22;17142;47.990;7.846;2024-03-22T17:32:55;17.40;66.20
30336;DHT22;17142;47.990;7.846;2024-03-22T17:35:21;17.30;67.70
30336;DHT22;17142;47.990;7.846;2024-03-22T17:37:47;17.20;68.40
30336;DHT22;17142;47.990;7.846;2024-03-22T17:40:13;17.10;68.90
30336;DHT22;17142;47.990;7.846;2024-03-22T17:42:41;16.90;70.00
30336;DHT22;17142;47.990;7.846;2024-03-22T17:45:07;16.80;71.50
30336;DHT22;17142;47.990;7.846;2024-03-22T17:47:35;16.70;71.80
30336;DHT22;17142;47.990;7.846;2024-03-22T17:50:01;16.60;73.40
30336;DHT22;17142;47.990;7.846;2024-03-22T17:52:29;16.40;74.20
30336;DHT22;17142;47.990;7.846;2024-03-22T17:54:55;16.40;75.40
30336;DHT22;17142;47.990;7.846;2024-03-22T17:57:23;16.30;76.00
30336;DHT22;17142;47.990;7.846;2024-03-22T17:59:49;16.30;75.90
30336;DHT22;17142;47.990;7.846;2024-03-22T18:02:15;16.30;77.00
30336;DHT22;17142;47.990;7.846;2024-03-22T18:04:41;16.20;78.70
30336;DHT22;17142;47.990;7.846;2024-03-22T18:07:09;16.10;79.10
30336;DHT22;17142;47.990;7.846;2024-03-22T18:09:34;16.10;80.20
30336;DHT22;17142;47.990;7.846;2024-03-22T18:12:00;16.00;81.10
30336;DHT22;17142;47.990;7.846;2024-03-22T18:14:26;15.90;82.20
30336;DHT22;17142;47.990;7.846;2024-03-22T18:16:51;15.70;83.50
30336;DHT22;17142;47.990;7.846;2024-03-22T18:19:18;15.80;84.80
30336;DHT22;17142;47.990;7.846;2024-03-22T18:21:44;15.70;84.90
30336;DHT22;17142;47.990;7.846;2024-03-22T18:24:10;15.60;85.40
30336;DHT22;17142;47.990;7.846;2024-03-22T18:26:38;15.50;85.80
30336;DHT22;17142;47.990;7.846;2024-03-22T18:29:03;15.40;87.50
30336;DHT22;17142;47.990;7.846;2024-03-22T18:31:32;15.30;88.30
30336;DHT22;17142;47.990;7.846;2024-03-22T18:34:00;15.20;89.50
30336;DHT22;17142;47.990;7.846;2024-03-22T18:36:25;15.00;90.50
30336;DHT22;17142;47.990;7.846;2024-03-22T18:38:51;14.80;91.50
30336;DHT22;17142;47.990;7.846;2024-03-22T18:41:19;14.60;92.60
30336;DHT22;17142;47.990;7.846;2024-03-22T18:43:45;14.60;93.00
30336;DHT22;17142;47.990;7.846;2024-03-22T18:46:10;14.60;93.60
30336;DHT22;17142;47.990;7.846;2024-03-22T18:48:36;14.50;93.90
30336;DHT22;17142;47.990;7.846;2024-03-22T18:51:06;14.60;94.10
30336;DHT22;17142;47.990;7.846;2024-03-22T18:53:37;14.60;94.20
30336;DHT22;17142;47.990;7.846;2024-03-22T18:56:05;14.70;94.40
30336;DHT22;17142;47.990;7.846;2024-03-22T18:58:33;14.60;95.10
30336;DHT22;17142;47.990;7.846;2024-03-22T19:00:59;14.50;95.80
30336;DHT22;17142;47.990;7.846;2024-03-22T19:03:25;14.40;96.50
30336;DHT22;17142;47.990;7.846;2024-03-22T19:05:51;14.50;96.60
30336;DHT22;17142;47.990;7.846;2024-03-22T19:08:16;14.40;97.00
30336;DHT22;17142;47.990;7.846;2024-03-22T19:10:42;14.30;97.00
30336;DHT22;17142;47.990;7.846;2024-03-22T19:13:08;14.30;97.40
30336;DHT22;17142;47.990;7.846;2024-03-22T19:15:34;14.20;97.80
30336;DHT22;17142;47.990;7.846;2024-03-22T19:18:00;14.10;98.30
30336;DHT22;17142;47.990;7.846;2024-03-22T19:20:30;14.00;99.00
30336;DHT22;17142;47.990;7.846;2024-03-22T19:22:58;14.00;99.40
30336;DHT22;17142;47.990;7.846;2024-03-22T19:25:28;13.90;99.90
30336;DHT22;17142;47.990;7.846;2024-03-22T19:27:54;13.90;99.90
30336;DHT22;17142;47.990;7.846;2024-03-22T19:30:22;14.00;99.90
30336;DHT22;17142;47.990;7.846;2024-03-22T19:32:52;13.80;99.90
30336;DHT22;17142;47.990;7.846;2024-03-22T19:35:18;13.90;99.80
30336;DHT22;17142;47.990;7.846;2024-03-22T19:37:43;13.90;99.90
30336;DHT22;17142;47.990;7.846;2024-03-22T19:40:09;13.80;99.90
30336;DHT22;17142;47.990;7.846;2024-03-22T19:42:38;13.80;99.90
30336;DHT22;17142;47.990;7.846;2024-03-22T19:45:05;13.80;99.90
30336;DHT22;17142;47.990;7.846;2024-03-22T19:47:33;13.70;99.90
30336;DHT22;17142;47.990;7.846;2024-03-22T19:49:59;13.50;99.90
30336;DHT22;17142;47.990;7.846;2024-03-22T19:52:25;13.30;99.90
30336;DHT22;17142;47.990;7.846;2024-03-22T19:54:50;13.20;99.90
30336;DHT22;17142;47.990;7.846;2024-03-22T19:57:18;13.20;99.90
30336;DHT22;17142;47.990;7.846;2024-03-22T19:59:46;13.10;99.90
30336;DHT22;17142;47.990;7.846;2024-03-22T20:02:12;13.10;99.90
30336;DHT22;17142;47.990;7.846;2024-03-22T20:04:41;13.00;99.90
30336;DHT22;17142;47.990;7.846;2024-03-22T20:07:06;12.90;99.90
30336;DHT22;17142;47.990;7.846;2024-03-22T20:09:34;12.80;99.90
30336;DHT22;17142;47.990;7.846;2024-03-22T20:12:00;12.90;99.90
30336;DHT22;17142;47.990;7.846;2024-03-22T20:14:30;13.10;99.90
30336;DHT22;17142;47.990;7.846;2024-03-22T20:16:58;13.20;99.90
30336;DHT22;17142;47.990;7.846;2024-03-22T20:19:25;13.40;99.90
30336;DHT22;17142;47.990;7.846;2024-03-22T20:21:50;13.30;99.90
30336;DHT22;17142;47.990;7.846;2024-03-22T20:24:16;13.20;99.90
30336;DHT22;17142;47.990;7.846;2024-03-22T20:26:42;13.10;99.90
30336;DHT22;17142;47.990;7.846;2024-03-22T20:29:07;13.00;99.90
30336;DHT22;17142;47.990;7.846;2024-03-22T20:31:33;12.80;99.90
30336;DHT22;17142;47.990;7.846;2024-03-22T20:34:07;12.80;99.90
30336;DHT22;17142;47.990;7.846;2024-03-22T20:36:33;12.70;99.90
